Time;durP1;ratioP1;P1;durP2;ratioP2;P2;SDS_P1;SDS_P2;PMS_P1;PMS_P2;Temp;Humidity;BMP_temperature;BMP_pressure;BME280_temperature;BME280_humidity;BME280_pressure;Samples;Min_cycle;Max_cycle;Signal;HPM_P1;HPM_P2
2023/01/13 00:00:15;;;;;;;28.50;4.32;;;8.60;99.90;;;;;;4929343;29;20058;-71
2023/01/13 00:02:42;;;;;;;38.42;5.32;;;8.50;99.90;;;;;;4929173;29;20134;-70
2023/01/13 00:05:09;;;;;;;23.23;3.78;;;8.50;99.90;;;;;;4928781;29;20048;-68
2023/01/13 00:07:38;;;;;;;16.50;3.83;;;8.50;99.90;;;;;;4929319;29;20043;-69
2023/01/13 00:10:09;;;;;;;21.25;5.28;;;8.50;99.90;;;;;;4929198;29;20043;-70
2023/01/13 00:12:40;;;;;;;17.55;5.60;;;8.50;99.90;;;;;;4929832;29;20059;-69
2023/01/13 00:15:08;;;;;;;13.55;2.67;;;8.50;99.90;;;;;;4898393;29;20043;-70
2023/01/13 00:17:34;;;;;;;17.98;3.42;;;8.50;99.90;;;;;;4930997;29;20048;-70
2023/01/13 00:20:01;;;;;;;24.77;4.28;;;8.40;99.90;;;;;;4930880;29;20562;-69
2023/01/13 00:22:28;;;;;;;19.38;3.13;;;8.40;99.90;;;;;;4931061;29;20421;-70
2023/01/13 00:24:57;;;;;;;16.70;2.72;;;8.50;99.90;;;;;;4930860;29;20051;-71
2023/01/13 00:27:24;;;;;;;11.60;1.95;;;8.40;99.90;;;;;;4931524;29;20055;-71
2023/01/13 00:29:51;;;;;;;14.07;2.55;;;8.40;99.90;;;;;;4930614;29;20087;-70
2023/01/13 00:32:17;;;;;;;22.25;4.20;;;8.40;99.90;;;;;;4928084;29;20075;-71
2023/01/13 00:34:44;;;;;;;17.23;2.63;;;8.40;99.90;;;;;;4930332;29;20051;-71
2023/01/13 00:37:13;;;;;;;22.48;2.85;;;8.40;99.90;;;;;;4930899;29;20056;-71
2023/01/13 00:39:40;;;;;;;20.38;3.13;;;8.40;99.90;;;;;;4930793;29;20048;-70
2023/01/13 00:44:52;;;;;;;17.83;3.88;;;8.30;99.90;;;;;;4929726;29;20047;-71
2023/01/13 00:47:19;;;;;;;17.83;3.65;;;8.40;99.90;;;;;;4929269;29;20062;-70
2023/01/13 00:49:46;;;;;;;11.93;1.88;;;8.30;99.90;;;;;;4929343;29;20419;-71
2023/01/13 00:52:13;;;;;;;12.25;1.98;;;8.30;99.90;;;;;;4929498;29;20220;-70
2023/01/13 00:54:40;;;;;;;15.90;2.28;;;8.30;99.90;;;;;;4929278;29;20055;-71
2023/01/13 00:57:06;;;;;;;11.73;2.60;;;8.30;99.90;;;;;;4929422;29;20048;-70
2023/01/13 00:59:33;;;;;;;8.63;1.90;;;8.30;99.90;;;;;;4912152;29;20497;-70
2023/01/13 01:02:00;;;;;;;11.60;1.90;;;8.20;99.90;;;;;;4930885;29;20048;-70
2023/01/13 01:04:27;;;;;;;21.58;2.47;;;8.20;99.90;;;;;;4930466;29;20538;-70
2023/01/13 01:06:53;;;;;;;10.20;1.90;;;8.20;99.90;;;;;;4931163;29;20047;-70
2023/01/13 01:09:20;;;;;;;16.48;3.97;;;8.20;99.90;;;;;;4934351;29;20058;-70
2023/01/13 01:11:47;;;;;;;14.07;2.92;;;8.20;99.90;;;;;;4934253;29;20518;-71
2023/01/13 01:14:13;;;;;;;4.60;1.42;;;8.20;99.90;;;;;;4934227;29;20054;-70
2023/01/13 01:16:40;;;;;;;10.95;2.55;;;8.20;99.90;;;;;;4916975;29;20048;-71
2023/01/13 01:19:07;;;;;;;12.30;2.50;;;8.20;99.90;;;;;;4934679;29;20048;-70
2023/01/13 01:21:34;;;;;;;11.70;1.92;;;8.10;99.90;;;;;;4933871;29;20058;-70
2023/01/13 01:24:01;;;;;;;12.95;2.10;;;8.10;99.90;;;;;;4913732;29;20086;-70
2023/01/13 01:26:28;;;;;;;9.70;2.42;;;8.10;99.90;;;;;;4928746;29;20506;-70
2023/01/13 01:28:55;;;;;;;11.25;2.03;;;8.00;99.90;;;;;;4935793;29;20060;-70
2023/01/13 01:31:26;;;;;;;11.30;2.50;;;8.10;99.90;;;;;;4914604;29;20054;-70
2023/01/13 01:33:53;;;;;;;17.08;2.60;;;8.10;99.90;;;;;;4933205;29;20139;-70
2023/01/13 01:36:21;;;;;;;12.95;2.20;;;8.10;99.90;;;;;;4930803;29;20048;-70
2023/01/13 01:38:48;;;;;;;15.98;4.28;;;8.10;99.90;;;;;;4911325;29;20047;-70
2023/01/13 01:41:17;;;;;;;17.05;2.28;;;8.00;99.90;;;;;;4933487;29;20048;-71
2023/01/13 01:44:20;;;;;;;19.35;3.13;;;8.00;99.90;;;;;;4934035;29;20139;-70
2023/01/13 01:46:46;;;;;;;14.13;3.10;;;8.00;99.90;;;;;;4897733;29;20415;-70
2023/01/13 01:49:20;;;;;;;19.83;3.58;;;8.00;99.90;;;;;;4933733;29;20078;-71
2023/01/13 01:52:17;;;;;;;19.70;2.47;;;8.00;99.90;;;;;;4916630;29;20074;-71
2023/01/13 01:55:12;;;;;;;14.82;1.92;;;8.00;99.90;;;;;;4913748;29;20055;-69
2023/01/13 01:57:44;;;;;;;24.88;3.30;;;7.90;99.90;;;;;;4928750;29;20070;-71
2023/01/13 02:00:11;;;;;;;15.55;2.38;;;7.90;99.90;;;;;;4916452;29;20051;-71
2023/01/13 02:02:38;;;;;;;15.43;3.13;;;7.90;99.90;;;;;;4933574;29;20388;-71
2023/01/13 02:05:05;;;;;;;20.45;2.90;;;7.90;99.90;;;;;;4916641;29;20102;-71
2023/01/13 02:07:32;;;;;;;20.65;4.70;;;7.90;99.90;;;;;;4933421;29;20055;-71
2023/01/13 02:10:02;;;;;;;17.52;2.88;;;7.90;99.90;;;;;;4900985;29;20048;-71
2023/01/13 02:12:28;;;;;;;20.17;3.67;;;7.90;99.90;;;;;;4899035;29;20379;-71
2023/01/13 02:14:57;;;;;;;14.20;3.30;;;7.90;99.90;;;;;;4913626;29;20320;-70
2023/01/13 02:17:46;;;;;;;17.98;2.33;;;7.90;99.90;;;;;;4933087;29;20058;-71
2023/01/13 02:21:04;;;;;;;21.70;3.08;;;7.90;99.90;;;;;;4932531;29;20055;-70
2023/01/13 02:27:13;;;;;;;12.30;2.28;;;7.90;99.90;;;;;;4914054;29;20083;-70
2023/01/13 02:32:47;;;;;;;10.80;2.03;;;7.80;99.90;;;;;;4919022;29;20074;-71
2023/01/13 02:35:31;;;;;;;15.85;2.78;;;7.80;99.90;;;;;;4916179;29;20145;-72
2023/01/13 02:37:58;;;;;;;17.10;3.90;;;7.80;99.90;;;;;;4901178;29;20047;-71
2023/01/13 02:40:30;;;;;;;12.80;2.58;;;7.80;99.90;;;;;;4933219;29;20067;-71
2023/01/13 02:45:54;;;;;;;17.17;2.80;;;7.80;99.90;;;;;;4925219;29;20070;-72
2023/01/13 02:48:21;;;;;;;20.52;3.38;;;7.80;99.90;;;;;;4900337;29;20395;-71
2023/01/13 02:51:09;;;;;;;18.92;3.22;;;7.80;99.90;;;;;;4900428;29;20058;-71
2023/01/13 02:53:39;;;;;;;18.25;2.08;;;7.80;99.90;;;;;;4930801;29;20039;-70
2023/01/13 02:56:06;;;;;;;14.23;3.10;;;7.80;99.90;;;;;;4900227;29;20083;-69
2023/01/13 02:58:34;;;;;;;13.07;2.40;;;7.80;99.90;;;;;;4915058;29;20237;-69
2023/01/13 03:01:00;;;;;;;16.98;2.55;;;7.80;99.90;;;;;;4915710;29;20134;-69
2023/01/13 03:03:27;;;;;;;20.33;3.17;;;7.80;99.90;;;;;;4932271;29;20073;-69
2023/01/13 03:06:00;;;;;;;14.63;3.95;;;7.80;99.90;;;;;;4932484;29;20048;-72
2023/01/13 03:09:00;;;;;;;19.15;2.60;;;7.80;99.90;;;;;;4915753;29;20067;-69
2023/01/13 03:11:30;;;;;;;21.42;2.97;;;7.80;99.90;;;;;;4897254;29;20067;-69
2023/01/13 03:14:07;;;;;;;18.50;3.38;;;7.80;99.90;;;;;;4899312;29;20054;-69
2023/01/13 03:16:45;;;;;;;19.80;3.70;;;7.80;99.90;;;;;;4930473;29;20055;-68
2023/01/13 03:19:37;;;;;;;18.10;3.10;;;7.80;99.90;;;;;;4901211;29;20079;-70
2023/01/13 03:22:29;;;;;;;15.10;2.75;;;7.80;99.90;;;;;;4931437;29;20055;-69
2023/01/13 03:25:00;;;;;;;18.58;2.92;;;7.80;99.90;;;;;;4914820;29;20039;-70
2023/01/13 03:27:39;;;;;;;18.50;3.15;;;7.80;99.90;;;;;;4914825;29;20094;-68
2023/01/13 03:30:08;;;;;;;11.63;2.55;;;7.80;99.90;;;;;;4931043;29;20408;-69
2023/01/13 03:32:37;;;;;;;20.75;3.80;;;7.80;99.90;;;;;;4914909;29;20047;-70
2023/01/13 03:35:08;;;;;;;20.48;3.67;;;7.80;99.90;;;;;;4898781;29;20056;-70
2023/01/13 03:37:37;;;;;;;29.33;3.03;;;7.80;99.90;;;;;;4914965;29;20051;-70
2023/01/13 03:40:23;;;;;;;13.50;2.65;;;7.80;99.90;;;;;;4930899;29;20466;-70
2023/01/13 03:45:39;;;;;;;19.50;2.97;;;7.80;99.90;;;;;;4902872;29;20079;-70
2023/01/13 03:48:08;;;;;;;15.25;3.15;;;7.80;99.90;;;;;;4898900;29;20422;-70
2023/01/13 03:50:37;;;;;;;18.85;2.78;;;7.80;99.90;;;;;;4914254;29;20059;-70
2023/01/13 03:53:22;;;;;;;12.98;2.17;;;7.80;99.90;;;;;;4899105;29;20126;-71
2023/01/13 03:55:51;;;;;;;18.25;3.33;;;7.80;99.90;;;;;;4899925;29;20043;-70
2023/01/13 03:58:23;;;;;;;23.42;5.50;;;7.80;99.90;;;;;;4913648;29;20380;-70
2023/01/13 04:00:56;;;;;;;23.88;2.83;;;7.80;99.90;;;;;;4897695;29;20083;-70
2023/01/13 04:03:39;;;;;;;18.23;3.50;;;7.80;99.90;;;;;;4913679;29;20550;-70
2023/01/13 04:06:29;;;;;;;18.67;2.25;;;7.80;99.90;;;;;;4930994;29;20052;-70
2023/01/13 04:09:04;;;;;;;23.58;3.58;;;7.80;99.90;;;;;;4915573;29;20508;-70
2023/01/13 04:11:48;;;;;;;26.13;2.80;;;7.80;99.90;;;;;;4914427;29;20052;-70
2023/01/13 04:14:15;;;;;;;24.67;4.55;;;7.80;99.90;;;;;;4902725;29;20341;-70
2023/01/13 04:16:41;;;;;;;10.40;3.25;;;7.80;99.90;;;;;;4918311;29;20075;-70
2023/01/13 04:19:08;;;;;;;22.90;3.92;;;7.80;99.90;;;;;;4898307;29;20110;-70
2023/01/13 04:21:35;;;;;;;16.20;3.67;;;7.80;99.90;;;;;;4930749;29;20047;-70
2023/01/13 04:24:01;;;;;;;9.23;2.25;;;7.80;99.90;;;;;;4913193;29;20507;-70
2023/01/13 04:26:28;;;;;;;22.45;3.40;;;7.90;99.90;;;;;;4930487;29;20047;-70
2023/01/13 04:28:55;;;;;;;20.20;3.60;;;7.90;99.90;;;;;;4922734;29;20056;-70
2023/01/13 04:31:22;;;;;;;18.23;3.05;;;8.00;99.90;;;;;;4930182;29;20044;-70
2023/01/13 04:33:48;;;;;;;23.45;3.47;;;7.90;99.90;;;;;;4930598;29;20073;-70
2023/01/13 04:36:15;;;;;;;20.00;2.78;;;7.90;99.90;;;;;;4930201;29;20056;-70
2023/01/13 04:38:43;;;;;;;24.80;3.75;;;7.80;99.90;;;;;;4931354;29;20127;-70
2023/01/13 04:41:09;;;;;;;26.08;4.68;;;7.80;99.90;;;;;;4931930;29;20048;-70
2023/01/13 04:43:36;;;;;;;12.50;2.42;;;7.80;99.90;;;;;;4934077;29;20058;-70
2023/01/13 04:46:03;;;;;;;18.52;3.35;;;7.70;99.90;;;;;;4935426;29;20048;-70
2023/01/13 04:48:29;;;;;;;19.65;3.10;;;7.70;99.90;;;;;;4934722;29;20048;-69
2023/01/13 04:50:56;;;;;;;22.85;4.32;;;7.70;99.90;;;;;;4915815;29;20579;-70
2023/01/13 04:53:23;;;;;;;20.67;3.42;;;7.70;99.90;;;;;;4928977;29;20223;-70
2023/01/13 04:55:50;;;;;;;19.50;3.45;;;7.70;99.90;;;;;;4934231;29;20044;-70
2023/01/13 04:58:17;;;;;;;13.80;2.58;;;7.70;99.90;;;;;;4933871;29;20056;-70
2023/01/13 05:00:44;;;;;;;28.58;3.42;;;7.70;99.90;;;;;;4934563;29;20058;-70
2023/01/13 05:03:11;;;;;;;18.30;4.22;;;7.70;99.90;;;;;;4934152;29;20143;-70
2023/01/13 05:05:37;;;;;;;21.08;3.45;;;7.60;99.90;;;;;;4934017;29;20057;-69
2023/01/13 05:08:04;;;;;;;23.67;4.55;;;7.60;99.90;;;;;;4932940;29;20127;-70
2023/01/13 05:10:31;;;;;;;23.95;3.22;;;7.60;99.90;;;;;;4934321;29;20052;-69
2023/01/13 05:18:31;;;;;;;14.38;2.45;;;7.70;99.90;;;;;;4922606;29;20130;-70
2023/01/13 05:20:58;;;;;;;23.45;3.67;;;7.60;99.90;;;;;;4914070;29;20048;-69
2023/01/13 05:26:10;;;;;;;17.65;3.83;;;7.70;99.90;;;;;;4933883;29;20056;-70
2023/01/13 05:28:37;;;;;;;19.33;2.83;;;7.70;99.90;;;;;;4933809;29;20086;-70
2023/01/13 05:31:04;;;;;;;27.52;2.92;;;7.60;99.90;;;;;;4933819;29;20087;-70
2023/01/13 05:33:31;;;;;;;13.60;2.47;;;7.60;99.90;;;;;;4933792;29;20047;-70
2023/01/13 05:36:01;;;;;;;18.83;2.33;;;7.70;99.90;;;;;;4933608;29;20048;-70
2023/01/13 05:38:28;;;;;;;14.63;3.10;;;7.60;99.90;;;;;;4933204;29;20110;-70
2023/01/13 05:43:42;;;;;;;19.50;4.88;;;7.60;99.90;;;;;;4919846;29;20131;-70
2023/01/13 05:46:10;;;;;;;15.32;3.33;;;7.70;99.90;;;;;;4933256;29;20048;-70
2023/01/13 05:48:38;;;;;;;20.83;3.55;;;7.70;99.90;;;;;;4933151;29;20146;-71
2023/01/13 05:51:06;;;;;;;21.10;3.95;;;7.70;99.90;;;;;;4916751;29;20047;-70
2023/01/13 05:53:33;;;;;;;21.20;2.45;;;7.70;99.90;;;;;;4932427;29;20134;-70
2023/01/13 05:56:02;;;;;;;17.48;4.03;;;7.70;99.90;;;;;;4915346;29;20087;-70
2023/01/13 05:58:29;;;;;;;13.35;2.42;;;7.60;99.90;;;;;;4916738;29;20055;-70
2023/01/13 06:00:59;;;;;;;16.50;3.30;;;7.60;99.90;;;;;;4933114;29;20355;-70
2023/01/13 06:03:25;;;;;;;15.82;2.38;;;7.60;99.90;;;;;;4933131;29;20052;-70
2023/01/13 06:05:57;;;;;;;12.57;2.70;;;7.60;99.90;;;;;;4933410;29;20060;-70
2023/01/13 06:08:24;;;;;;;13.93;2.70;;;7.60;99.90;;;;;;4933125;29;20170;-70
2023/01/13 06:10:51;;;;;;;20.15;3.97;;;7.60;99.90;;;;;;4933056;29;20048;-71
2023/01/13 06:13:18;;;;;;;21.80;5.90;;;7.60;99.90;;;;;;4932953;29;20062;-70
2023/01/13 06:15:44;;;;;;;15.40;3.45;;;7.60;99.90;;;;;;4933064;29;20052;-70
2023/01/13 06:18:11;;;;;;;13.20;2.22;;;7.60;99.90;;;;;;4929196;29;20052;-70
2023/01/13 06:20:38;;;;;;;14.20;2.65;;;7.60;99.90;;;;;;4922902;29;20669;-71
2023/01/13 06:23:07;;;;;;;15.70;2.80;;;7.60;99.90;;;;;;4933633;29;20143;-71
2023/01/13 06:26:16;;;;;;;13.05;2.53;;;7.60;99.90;;;;;;4900747;29;20054;-70
2023/01/13 06:28:42;;;;;;;18.48;3.00;;;7.70;99.90;;;;;;4855222;29;20057;-69
2023/01/13 06:31:09;;;;;;;16.70;3.83;;;7.60;99.90;;;;;;4920253;29;20058;-71
2023/01/13 06:33:41;;;;;;;24.77;4.35;;;7.70;99.90;;;;;;4932759;29;20126;-70
2023/01/13 06:36:14;;;;;;;20.83;2.38;;;7.60;99.90;;;;;;4900779;29;20043;-70
2023/01/13 06:38:44;;;;;;;29.77;4.30;;;7.60;99.90;;;;;;4914741;29;20047;-71
2023/01/13 06:41:10;;;;;;;20.08;3.20;;;7.70;99.90;;;;;;4925046;29;20054;-70
2023/01/13 06:43:38;;;;;;;21.92;3.83;;;7.70;99.90;;;;;;4932976;29;20102;-70
2023/01/13 06:46:04;;;;;;;18.67;3.85;;;7.70;99.90;;;;;;4917307;29;20123;-69
2023/01/13 06:48:33;;;;;;;17.10;4.20;;;7.70;99.90;;;;;;4923865;29;20476;-71
2023/01/13 06:51:01;;;;;;;17.33;3.38;;;7.70;99.90;;;;;;4933671;29;20048;-69
2023/01/13 06:53:28;;;;;;;21.05;3.38;;;7.70;99.90;;;;;;4934890;29;20520;-70
2023/01/13 06:55:55;;;;;;;28.60;3.42;;;7.70;99.90;;;;;;4935655;29;20052;-70
2023/01/13 06:58:22;;;;;;;17.17;4.20;;;7.80;99.90;;;;;;4930248;29;20111;-70
2023/01/13 07:00:50;;;;;;;16.33;2.90;;;7.70;99.90;;;;;;4922188;29;20048;-71
2023/01/13 07:03:17;;;;;;;18.88;4.60;;;7.80;99.90;;;;;;4933905;29;20135;-71
2023/01/13 07:05:51;;;;;;;23.98;3.95;;;7.80;99.90;;;;;;4933802;29;20048;-71
2023/01/13 07:08:17;;;;;;;24.23;2.60;;;7.80;99.90;;;;;;4932312;29;20568;-71
2023/01/13 07:10:44;;;;;;;18.55;2.20;;;7.80;99.90;;;;;;4932682;29;20055;-71
2023/01/13 07:16:00;;;;;;;21.77;3.45;;;7.90;99.90;;;;;;4932760;29;20131;-72
2023/01/13 07:18:30;;;;;;;13.43;3.08;;;7.90;99.90;;;;;;4931869;29;20529;-72
2023/01/13 07:20:58;;;;;;;19.85;3.13;;;7.90;99.90;;;;;;4932129;29;20052;-71
2023/01/13 07:23:33;;;;;;;21.95;2.78;;;8.00;99.90;;;;;;4915058;29;20055;-72
2023/01/13 07:26:00;;;;;;;17.52;2.95;;;8.00;99.90;;;;;;4932417;29;20058;-72
2023/01/13 07:28:28;;;;;;;17.45;4.90;;;8.00;99.90;;;;;;4932306;29;20102;-72
2023/01/13 07:30:54;;;;;;;16.15;3.47;;;8.00;99.90;;;;;;4932304;29;20363;-71
2023/01/13 07:33:21;;;;;;;24.40;3.25;;;7.90;99.90;;;;;;4914181;29;20059;-71
2023/01/13 07:35:55;;;;;;;13.02;2.58;;;7.90;99.90;;;;;;4933435;29;20103;-71
2023/01/13 07:38:21;;;;;;;23.88;4.75;;;7.80;99.90;;;;;;4930667;29;20087;-72
2023/01/13 07:40:48;;;;;;;11.88;1.73;;;7.90;99.90;;;;;;4933269;29;20059;-71
2023/01/13 07:43:33;;;;;;;19.00;3.58;;;7.90;99.90;;;;;;4928745;29;20453;-72
2023/01/13 07:46:04;;;;;;;16.20;3.45;;;7.90;99.90;;;;;;4934465;29;20056;-69
2023/01/13 07:48:32;;;;;;;18.73;3.05;;;7.90;99.90;;;;;;4932245;29;20127;-69
2023/01/13 07:51:03;;;;;;;21.08;3.80;;;7.90;99.90;;;;;;4932430;29;20044;-69
2023/01/13 07:53:30;;;;;;;19.05;3.55;;;7.80;99.90;;;;;;4912310;29;20079;-69
2023/01/13 07:55:57;;;;;;;28.65;4.07;;;7.80;99.90;;;;;;4906626;29;20047;-71
2023/01/13 07:58:24;;;;;;;16.08;3.05;;;7.80;99.90;;;;;;4931370;29;20131;-70
2023/01/13 08:00:51;;;;;;;15.27;2.70;;;7.80;99.90;;;;;;4931774;29;20062;-69
2023/01/13 08:03:18;;;;;;;19.95;3.17;;;7.80;99.90;;;;;;4931312;29;20099;-69
2023/01/13 08:05:45;;;;;;;16.20;3.33;;;7.80;99.90;;;;;;4931430;29;20051;-69
2023/01/13 08:08:12;;;;;;;18.13;3.30;;;7.80;99.90;;;;;;4930084;29;20047;-68
2023/01/13 08:10:39;;;;;;;26.33;3.30;;;7.80;99.90;;;;;;4931136;29;20048;-69
2023/01/13 08:13:16;;;;;;;16.73;3.35;;;7.90;99.90;;;;;;4930747;29;20060;-70
2023/01/13 08:15:44;;;;;;;26.70;3.42;;;7.90;99.90;;;;;;4914285;29;20048;-70
2023/01/13 08:18:10;;;;;;;16.00;3.15;;;7.90;99.90;;;;;;4913856;29;20055;-68
2023/01/13 08:20:38;;;;;;;22.42;2.88;;;7.90;99.90;;;;;;4931170;29;20135;-69
2023/01/13 08:23:04;;;;;;;14.70;3.08;;;7.90;99.90;;;;;;4931587;29;20051;-69
2023/01/13 08:25:33;;;;;;;23.35;2.35;;;7.90;99.90;;;;;;4930875;29;20111;-69
2023/01/13 08:28:00;;;;;;;17.50;3.78;;;7.90;99.90;;;;;;4931099;29;20051;-69
2023/01/13 08:30:27;;;;;;;20.48;2.53;;;7.80;99.90;;;;;;4931383;29;20056;-68
2023/01/13 08:32:54;;;;;;;14.77;2.72;;;7.90;99.90;;;;;;4588135;29;9999799;-69
2023/01/13 08:35:21;;;;;;;13.68;3.28;;;7.90;99.90;;;;;;4927852;29;20062;-69
2023/01/13 08:37:48;;;;;;;17.00;2.92;;;7.90;99.90;;;;;;4927672;29;20071;-70
2023/01/13 08:40:15;;;;;;;26.92;4.65;;;7.80;99.90;;;;;;4910544;29;20051;-69
2023/01/13 08:42:42;;;;;;;20.85;3.67;;;7.90;99.90;;;;;;4928159;29;20048;-70
2023/01/13 08:45:09;;;;;;;15.70;2.38;;;7.90;99.90;;;;;;4910142;29;20436;-69
2023/01/13 08:47:36;;;;;;;18.33;2.97;;;7.90;99.90;;;;;;4910977;29;20048;-69
2023/01/13 08:50:03;;;;;;;17.73;3.97;;;7.90;99.90;;;;;;4927577;29;20058;-69
2023/01/13 08:52:30;;;;;;;25.73;3.75;;;8.00;99.90;;;;;;4927348;29;20052;-69
2023/01/13 08:54:56;;;;;;;16.83;4.50;;;8.00;99.90;;;;;;4925864;29;20499;-70
2023/01/13 08:57:23;;;;;;;22.88;3.95;;;8.00;99.90;;;;;;4927377;29;20048;-70
2023/01/13 08:59:50;;;;;;;13.98;2.53;;;8.00;99.90;;;;;;4928128;29;20055;-70
2023/01/13 09:02:19;;;;;;;24.50;3.38;;;8.00;99.90;;;;;;4927377;29;20158;-69
2023/01/13 09:04:46;;;;;;;19.30;2.90;;;8.00;99.90;;;;;;4911082;29;20052;-70
2023/01/13 09:07:13;;;;;;;23.75;3.85;;;8.00;99.90;;;;;;4908206;29;20487;-71
2023/01/13 09:09:39;;;;;;;28.77;5.13;;;8.10;99.90;;;;;;4927477;29;20048;-69
2023/01/13 09:14:54;;;;;;;18.08;4.97;;;8.10;99.90;;;;;;4911858;29;20035;-69
2023/01/13 09:17:22;;;;;;;17.60;3.17;;;8.10;99.90;;;;;;4927956;29;20749;-69
2023/01/13 09:19:49;;;;;;;18.58;3.20;;;8.20;99.90;;;;;;4926866;29;20075;-74
2023/01/13 09:22:16;;;;;;;21.48;3.25;;;8.20;99.90;;;;;;4922120;29;20134;-69
2023/01/13 09:24:43;;;;;;;16.17;2.42;;;8.20;99.90;;;;;;4910950;29;20070;-70
2023/01/13 09:27:11;;;;;;;22.08;3.38;;;8.30;99.90;;;;;;4928201;29;20051;-71
2023/01/13 09:29:38;;;;;;;17.67;3.28;;;8.30;99.90;;;;;;4930701;29;20051;-69
2023/01/13 09:32:05;;;;;;;10.55;2.90;;;8.30;99.90;;;;;;4931534;29;20051;-70
2023/01/13 09:37:17;;;;;;;44.50;6.55;;;8.30;99.90;;;;;;4933805;29;20086;-70
2023/01/13 09:39:44;;;;;;;17.38;2.92;;;8.40;99.90;;;;;;4931304;29;20079;-70
2023/01/13 09:45:55;;;;;;;20.67;3.72;;;8.40;99.90;;;;;;4931245;29;20052;-70
2023/01/13 09:48:23;;;;;;;;;;;8.50;99.90;;;;;;4916475;29;20051;-70
2023/01/13 09:51:05;;;;;;;17.38;2.83;;;8.50;99.90;;;;;;4930652;29;19999;-70
2023/01/13 09:53:42;;;;;;;14.20;2.55;;;8.50;99.90;;;;;;4889674;29;20133;-71
2023/01/13 09:56:09;;;;;;;24.63;3.15;;;8.70;99.90;;;;;;4910710;29;20048;-70
2023/01/13 09:58:36;;;;;;;15.45;2.65;;;8.60;99.90;;;;;;4925709;29;20110;-71
2023/01/13 10:01:06;;;;;;;20.80;3.38;;;8.60;99.90;;;;;;4931007;29;20055;-69
2023/01/13 10:03:33;;;;;;;19.40;2.45;;;8.70;99.90;;;;;;4930355;29;20098;-70
2023/01/13 10:06:16;;;;;;;16.08;2.30;;;8.70;99.90;;;;;;4898695;29;20443;-71
2023/01/13 10:08:44;;;;;;;15.23;2.58;;;8.70;99.90;;;;;;4913443;29;20050;-70
2023/01/13 10:14:17;;;;;;;23.90;2.75;;;8.80;99.90;;;;;;4930430;29;20056;-69
2023/01/13 10:16:45;;;;;;;17.33;2.70;;;8.80;99.90;;;;;;4930775;29;20440;-69
2023/01/13 10:19:19;;;;;;;20.25;4.53;;;8.80;99.90;;;;;;4913263;29;20051;-72
2023/01/13 10:21:56;;;;;;;15.57;3.35;;;8.90;99.90;;;;;;4913337;29;20062;-69
2023/01/13 10:24:28;;;;;;;13.75;2.03;;;8.90;99.90;;;;;;4930044;29;20074;-70
2023/01/13 10:27:17;;;;;;;18.48;2.83;;;8.90;99.90;;;;;;4911986;29;20055;-70
2023/01/13 10:29:43;;;;;;;17.63;3.25;;;8.90;99.90;;;;;;4925901;29;20051;-70
2023/01/13 10:32:10;;;;;;;14.85;2.58;;;9.00;99.90;;;;;;4930276;29;20047;-69
2023/01/13 10:34:50;;;;;;;18.70;3.05;;;9.00;99.90;;;;;;4930104;29;20134;-70
2023/01/13 10:37:25;;;;;;;11.52;2.65;;;9.10;99.90;;;;;;4930041;29;20534;-69
2023/01/13 10:39:56;;;;;;;14.80;2.28;;;9.10;99.90;;;;;;4929189;29;20146;-70
2023/01/13 10:42:23;;;;;;;13.20;2.10;;;9.10;99.90;;;;;;4930079;29;20519;-72
2023/01/13 10:44:54;;;;;;;14.40;2.45;;;9.20;99.90;;;;;;4929436;29;20047;-69
2023/01/13 10:47:28;;;;;;;10.48;2.67;;;9.30;99.90;;;;;;4929899;29;20083;-71
2023/01/13 10:49:59;;;;;;;13.82;2.22;;;9.30;99.90;;;;;;4927514;29;20139;-69
2023/01/13 10:52:28;;;;;;;10.85;2.42;;;9.40;99.90;;;;;;4912680;29;20078;-70
2023/01/13 10:54:55;;;;;;;21.25;3.65;;;9.40;99.90;;;;;;4929703;29;20051;-70
2023/01/13 10:57:22;;;;;;;23.63;3.60;;;9.40;99.90;;;;;;4930040;29;20043;-70
2023/01/13 10:59:49;;;;;;;13.65;2.42;;;9.40;99.90;;;;;;4929245;29;20054;-71
2023/01/13 11:02:30;;;;;;;24.08;2.08;;;9.40;99.90;;;;;;4929960;29;20499;-71
2023/01/13 11:05:19;;;;;;;15.35;3.05;;;9.40;99.90;;;;;;4929361;29;20051;-70
2023/01/13 11:07:51;;;;;;;14.88;3.03;;;9.40;99.90;;;;;;4912503;29;20058;-70
2023/01/13 11:10:25;;;;;;;10.88;2.08;;;9.50;99.90;;;;;;4929216;29;20106;-75
2023/01/13 11:13:14;;;;;;;11.90;2.25;;;9.50;99.90;;;;;;4929273;29;20055;-70
2023/01/13 11:16:12;;;;;;;19.60;3.38;;;9.60;99.90;;;;;;4889822;29;20052;-69
2023/01/13 11:19:00;;;;;;;7.40;1.65;;;9.60;99.90;;;;;;4925812;29;20054;-69
2023/01/13 11:21:30;;;;;;;11.02;2.05;;;9.60;99.90;;;;;;4927757;29;20051;-70
2023/01/13 11:24:23;;;;;;;23.38;2.97;;;9.60;99.90;;;;;;4896231;29;20053;-71
2023/01/13 11:27:06;;;;;;;18.50;3.50;;;9.60;99.90;;;;;;4912925;29;20570;-69
2023/01/13 11:29:37;;;;;;;10.70;1.73;;;9.70;99.90;;;;;;4910432;29;20055;-71
2023/01/13 11:32:18;;;;;;;14.75;2.70;;;9.60;99.90;;;;;;4914452;29;20135;-70
2023/01/13 11:35:18;;;;;;;15.98;3.30;;;9.80;99.90;;;;;;4900050;29;20055;-65
2023/01/13 11:37:50;;;;;;;12.77;2.58;;;9.80;99.90;;;;;;4901538;29;20052;-69
2023/01/13 11:40:28;;;;;;;11.82;2.25;;;9.70;99.90;;;;;;4913742;29;20060;-70
2023/01/13 11:43:07;;;;;;;9.02;1.92;;;9.80;99.90;;;;;;4914483;29;20051;-70
2023/01/13 11:45:45;;;;;;;16.90;2.63;;;9.80;99.90;;;;;;4915314;29;20051;-70
2023/01/13 11:48:14;;;;;;;13.05;2.25;;;9.80;99.90;;;;;;4930580;29;20052;-70
2023/01/13 11:50:46;;;;;;;21.13;2.22;;;9.90;99.90;;;;;;4898388;29;20134;-69
2023/01/13 11:53:25;;;;;;;18.88;3.33;;;9.90;99.90;;;;;;4913395;29;20059;-69
2023/01/13 11:56:03;;;;;;;15.73;2.55;;;10.00;99.90;;;;;;4929275;29;20484;-69
2023/01/13 11:58:59;;;;;;;10.55;2.35;;;10.10;99.90;;;;;;4913107;29;20070;-70
2023/01/13 12:01:44;;;;;;;16.05;2.70;;;10.00;99.90;;;;;;4913374;29;20464;-69
2023/01/13 12:04:16;;;;;;;4.28;1.75;;;10.10;99.90;;;;;;4928385;29;20063;-70
2023/01/13 12:06:44;;;;;;;15.88;2.47;;;10.10;99.90;;;;;;4918101;29;20423;-70
2023/01/13 12:09:29;;;;;;;11.82;2.33;;;10.10;99.90;;;;;;4930842;29;20142;-69
2023/01/13 12:12:26;;;;;;;;;;;10.10;99.90;;;;;;4929836;29;20047;-70
2023/01/13 12:15:21;;;;;;;10.05;2.63;;;10.10;99.90;;;;;;4929740;29;19982;-70
2023/01/13 12:17:54;;;;;;;;;;;10.20;99.90;;;;;;4929667;29;20139;-73
2023/01/13 12:20:33;;;;;;;10.82;2.58;;;10.20;99.90;;;;;;4932590;29;19973;-70
2023/01/13 12:23:02;;;;;;;13.52;2.63;;;10.30;99.90;;;;;;4930127;29;20043;-70
2023/01/13 12:25:39;;;;;;;12.50;2.80;;;10.30;99.90;;;;;;4572058;29;9999850;-72
2023/01/13 12:28:12;;;;;;;15.88;2.33;;;10.30;99.90;;;;;;4911624;29;20040;-70
2023/01/13 12:30:43;;;;;;;19.92;2.67;;;10.30;99.90;;;;;;4912406;29;20050;-69
2023/01/13 12:33:28;;;;;;;18.15;2.47;;;10.40;99.90;;;;;;4893143;29;20090;-71
2023/01/13 12:36:19;;;;;;;11.45;2.60;;;10.40;99.90;;;;;;4924877;29;20331;-69
2023/01/13 12:38:54;;;;;;;13.23;4.22;;;10.40;99.90;;;;;;4888463;29;20143;-69
2023/01/13 12:41:30;;;;;;;17.20;4.20;;;10.40;99.90;;;;;;4935729;29;20056;-71
2023/01/13 12:44:19;;;;;;;21.85;2.53;;;10.40;99.90;;;;;;4896082;29;20054;-70
2023/01/13 12:46:54;;;;;;;10.13;2.00;;;10.40;99.90;;;;;;4895154;29;20174;-69
2023/01/13 12:49:22;;;;;;;24.25;5.40;;;10.40;99.90;;;;;;4923863;29;20101;-70
2023/01/13 12:51:55;;;;;;;19.02;2.78;;;10.40;99.90;;;;;;4928235;29;20118;-70
2023/01/13 12:54:40;;;;;;;19.98;3.25;;;10.40;99.90;;;;;;4927937;29;20055;-71
2023/01/13 12:57:15;;;;;;;14.00;2.55;;;10.40;99.90;;;;;;4909531;29;20059;-70
2023/01/13 12:59:48;;;;;;;14.65;2.20;;;10.40;99.90;;;;;;4923024;29;20067;-71
2023/01/13 13:02:23;;;;;;;17.70;2.17;;;10.40;99.90;;;;;;4893899;29;20576;-70
2023/01/13 13:04:53;;;;;;;22.52;3.92;;;10.40;99.90;;;;;;4930032;29;20077;-71
2023/01/13 13:07:29;;;;;;;12.90;2.20;;;10.50;99.90;;;;;;4919313;29;20050;-72
2023/01/13 13:10:12;;;;;;;12.55;2.20;;;10.50;99.90;;;;;;4910565;29;20075;-69
2023/01/13 13:15:29;;;;;;;25.50;2.70;;;10.50;99.90;;;;;;4910142;29;20076;-71
2023/01/13 13:18:07;;;;;;;18.27;2.88;;;10.50;99.90;;;;;;4911678;29;20151;-69
2023/01/13 13:20:59;;;;;;;7.57;1.75;;;10.50;99.90;;;;;;4911742;29;20048;-71
2023/01/13 13:23:32;;;;;;;12.73;2.38;;;10.50;99.90;;;;;;4912706;29;20086;-71
2023/01/13 13:26:01;;;;;;;18.20;2.70;;;10.60;99.90;;;;;;4912172;29;20388;-70
2023/01/13 13:28:31;;;;;;;9.85;2.13;;;10.60;99.90;;;;;;4911367;29;20062;-71
2023/01/13 13:31:36;;;;;;;15.35;2.72;;;10.60;99.90;;;;;;4912294;29;20407;-70
2023/01/13 13:34:22;;;;;;;18.95;3.00;;;10.60;99.90;;;;;;4912591;29;20059;-72
2023/01/13 13:37:05;;;;;;;16.15;2.92;;;10.60;99.90;;;;;;4912225;29;20399;-69
2023/01/13 13:48:51;;;;;;;17.17;1.98;;;10.50;99.90;;;;;;4906706;29;19937;-70
2023/01/13 13:51:30;;;;;;;8.32;1.52;;;10.50;99.90;;;;;;4890157;29;20409;-71
2023/01/13 13:53:58;;;;;;;22.52;3.33;;;10.50;99.90;;;;;;4921323;29;20067;-70
2023/01/13 13:56:34;;;;;;;18.08;3.00;;;10.50;99.90;;;;;;4905410;29;20091;-70
2023/01/13 13:59:01;;;;;;;9.90;2.40;;;10.50;99.90;;;;;;4895628;29;20087;-69
2023/01/13 14:01:29;;;;;;;9.65;2.17;;;10.50;99.90;;;;;;4911844;29;20274;-71